sensor_id;sensor_type;location;lat;lon;timestamp;pressure;altitude;pressure_sealevel;temperature;humidity
72308;BME280;60257;42.638;23.376;2022-11-15T00:00:25;95180.19;;;3.38;79.05
72308;BME280;60257;42.638;23.376;2022-11-15T00:02:54;95178.31;;;3.34;79.36
72308;BME280;60257;42.638;23.376;2022-11-15T00:05:20;95163.97;;;3.33;79.20
72308;BME280;60257;42.638;23.376;2022-11-15T00:07:45;95174.75;;;3.38;79.23
72308;BME280;60257;42.638;23.376;2022-11-15T00:10:11;95188.84;;;3.40;79.04
72308;BME280;60257;42.638;23.376;2022-11-15T00:12:36;95182.03;;;3.43;79.05
72308;BME280;60257;42.638;23.376;2022-11-15T00:15:02;95170.97;;;3.39;79.25
72308;BME280;60257;42.638;23.376;2022-11-15T00:17:27;95176.66;;;3.38;79.56
72308;BME280;60257;42.638;23.376;2022-11-15T00:19:52;95164.03;;;3.28;79.91
72308;BME280;60257;42.638;23.376;2022-11-15T00:22:18;95173.25;;;3.27;80.20
72308;BME280;60257;42.638;23.376;2022-11-15T00:24:44;95160.59;;;3.23;79.75
72308;BME280;60257;42.638;23.376;2022-11-15T00:27:09;95170.81;;;3.26;79.94
72308;BME280;60257;42.638;23.376;2022-11-15T00:29:34;95167.09;;;3.22;79.97
72308;BME280;60257;42.638;23.376;2022-11-15T00:32:02;95162.31;;;3.14;79.41
72308;BME280;60257;42.638;23.376;2022-11-15T00:34:28;95159.50;;;3.24;78.99
72308;BME280;60257;42.638;23.376;2022-11-15T00:36:53;95164.44;;;3.17;78.78
72308;BME280;60257;42.638;23.376;2022-11-15T00:39:18;95163.84;;;3.20;78.92
72308;BME280;60257;42.638;23.376;2022-11-15T00:41:44;95150.44;;;3.09;79.13
72308;BME280;60257;42.638;23.376;2022-11-15T00:44:09;95156.59;;;3.15;78.97
72308;BME280;60257;42.638;23.376;2022-11-15T00:46:35;95148.06;;;3.03;79.09
72308;BME280;60257;42.638;23.376;2022-11-15T00:49:00;95145.13;;;2.99;79.15
72308;BME280;60257;42.638;23.376;2022-11-15T00:51:25;95155.44;;;2.97;79.57
72308;BME280;60257;42.638;23.376;2022-11-15T00:53:51;95145.84;;;2.81;79.35
72308;BME280;60257;42.638;23.376;2022-11-15T00:56:16;95146.59;;;2.87;79.91
72308;BME280;60257;42.638;23.376;2022-11-15T00:58:42;95145.75;;;2.91;79.42
72308;BME280;60257;42.638;23.376;2022-11-15T01:01:09;95147.66;;;2.91;79.72
72308;BME280;60257;42.638;23.376;2022-11-15T01:03:37;95141.94;;;2.63;79.70
72308;BME280;60257;42.638;23.376;2022-11-15T01:06:03;95113.53;;;2.37;80.76
72308;BME280;60257;42.638;23.376;2022-11-15T01:08:29;95112.28;;;2.53;80.42
72308;BME280;60257;42.638;23.376;2022-11-15T01:10:54;95135.88;;;2.77;80.01
72308;BME280;60257;42.638;23.376;2022-11-15T01:13:20;95137.59;;;2.67;80.23
72308;BME280;60257;42.638;23.376;2022-11-15T01:15:45;95140.97;;;2.83;80.09
72308;BME280;60257;42.638;23.376;2022-11-15T01:18:11;95142.84;;;2.83;79.51
72308;BME280;60257;42.638;23.376;2022-11-15T01:20:43;95137.81;;;2.71;80.77
72308;BME280;60257;42.638;23.376;2022-11-15T01:23:09;95142.72;;;2.69;80.84
72308;BME280;60257;42.638;23.376;2022-11-15T01:25:34;95122.44;;;2.66;80.12
72308;BME280;60257;42.638;23.376;2022-11-15T01:27:59;95126.97;;;2.71;79.67
72308;BME280;60257;42.638;23.376;2022-11-15T01:30:25;95131.91;;;2.69;79.96
72308;BME280;60257;42.638;23.376;2022-11-15T01:32:50;95123.53;;;2.65;80.35
72308;BME280;60257;42.638;23.376;2022-11-15T01:35:16;95134.78;;;2.78;80.14
72308;BME280;60257;42.638;23.376;2022-11-15T01:37:41;95142.34;;;2.81;80.88
72308;BME280;60257;42.638;23.376;2022-11-15T01:40:07;95140.72;;;2.80;80.66
72308;BME280;60257;42.638;23.376;2022-11-15T01:42:33;95132.38;;;2.76;80.92
72308;BME280;60257;42.638;23.376;2022-11-15T01:44:58;95131.28;;;2.77;80.62
72308;BME280;60257;42.638;23.376;2022-11-15T01:47:33;95134.28;;;2.76;79.84
72308;BME280;60257;42.638;23.376;2022-11-15T01:50:04;95141.19;;;2.58;80.79
72308;BME280;60257;42.638;23.376;2022-11-15T01:52:32;95136.47;;;2.45;82.35
72308;BME280;60257;42.638;23.376;2022-11-15T01:55:11;95137.00;;;2.47;81.79
72308;BME280;60257;42.638;23.376;2022-11-15T01:57:39;95117.25;;;2.41;81.60
72308;BME280;60257;42.638;23.376;2022-11-15T02:00:08;95124.22;;;2.52;80.99
72308;BME280;60257;42.638;23.376;2022-11-15T02:02:35;95132.81;;;2.59;81.11
72308;BME280;60257;42.638;23.376;2022-11-15T02:05:01;95134.47;;;2.55;81.01
72308;BME280;60257;42.638;23.376;2022-11-15T02:07:28;95133.59;;;2.60;80.91
72308;BME280;60257;42.638;23.376;2022-11-15T02:09:54;95115.81;;;2.54;79.97
72308;BME280;60257;42.638;23.376;2022-11-15T02:12:21;95129.47;;;2.67;79.53
72308;BME280;60257;42.638;23.376;2022-11-15T02:14:52;95126.91;;;2.52;80.54
72308;BME280;60257;42.638;23.376;2022-11-15T02:28:48;95116.56;;;2.59;80.34
72308;BME280;60257;42.638;23.376;2022-11-15T02:31:34;95123.53;;;2.65;79.95
72308;BME280;60257;42.638;23.376;2022-11-15T02:34:23;95130.34;;;2.63;79.74
72308;BME280;60257;42.638;23.376;2022-11-15T02:37:14;95130.66;;;2.56;80.17
72308;BME280;60257;42.638;23.376;2022-11-15T02:39:51;95125.81;;;2.53;80.09
72308;BME280;60257;42.638;23.376;2022-11-15T02:42:25;95123.41;;;2.52;79.93
72308;BME280;60257;42.638;23.376;2022-11-15T02:45:13;95122.25;;;2.58;80.18
72308;BME280;60257;42.638;23.376;2022-11-15T02:47:43;95109.25;;;2.60;79.75
72308;BME280;60257;42.638;23.376;2022-11-15T02:50:13;95119.50;;;2.63;79.99
72308;BME280;60257;42.638;23.376;2022-11-15T02:52:43;95121.63;;;2.66;79.03
72308;BME280;60257;42.638;23.376;2022-11-15T02:55:29;95127.38;;;2.59;79.56
72308;BME280;60257;42.638;23.376;2022-11-15T02:57:59;95123.94;;;2.54;79.46
72308;BME280;60257;42.638;23.376;2022-11-15T03:00:26;95120.94;;;2.55;79.29
72308;BME280;60257;42.638;23.376;2022-11-15T03:06:09;95121.91;;;2.64;79.42
72308;BME280;60257;42.638;23.376;2022-11-15T03:08:50;95128.03;;;2.75;79.49
72308;BME280;60257;42.638;23.376;2022-11-15T03:11:20;95119.03;;;2.80;79.13
72308;BME280;60257;42.638;23.376;2022-11-15T03:18:53;95115.78;;;2.83;78.87
72308;BME280;60257;42.638;23.376;2022-11-15T03:21:21;95123.56;;;2.89;78.83
72308;BME280;60257;42.638;23.376;2022-11-15T03:23:49;95122.19;;;2.92;79.07
72308;BME280;60257;42.638;23.376;2022-11-15T03:26:18;95123.91;;;3.06;79.28
72308;BME280;60257;42.638;23.376;2022-11-15T03:28:56;95116.41;;;3.22;79.08
72308;BME280;60257;42.638;23.376;2022-11-15T03:31:27;95107.34;;;3.32;79.48
72308;BME280;60257;42.638;23.376;2022-11-15T03:34:28;95112.34;;;3.43;79.40
72308;BME280;60257;42.638;23.376;2022-11-15T03:36:55;95109.22;;;3.55;79.22
72308;BME280;60257;42.638;23.376;2022-11-15T03:39:21;95099.09;;;3.61;79.33
72308;BME280;60257;42.638;23.376;2022-11-15T03:48:13;95101.75;;;3.84;79.00
72308;BME280;60257;42.638;23.376;2022-11-15T03:50:41;95079.94;;;3.90;78.89
72308;BME280;60257;42.638;23.376;2022-11-15T03:53:07;95082.59;;;3.95;78.37
72308;BME280;60257;42.638;23.376;2022-11-15T03:55:33;95076.94;;;3.91;78.44
72308;BME280;60257;42.638;23.376;2022-11-15T03:58:00;95088.59;;;3.92;78.48
72308;BME280;60257;42.638;23.376;2022-11-15T04:00:26;95090.00;;;3.89;78.16
72308;BME280;60257;42.638;23.376;2022-11-15T04:02:51;95082.81;;;3.79;78.24
72308;BME280;60257;42.638;23.376;2022-11-15T04:05:17;95093.38;;;3.81;77.76
72308;BME280;60257;42.638;23.376;2022-11-15T04:07:42;95077.59;;;3.64;77.46
72308;BME280;60257;42.638;23.376;2022-11-15T04:10:10;95082.88;;;3.37;77.05
72308;BME280;60257;42.638;23.376;2022-11-15T04:12:42;95092.38;;;2.92;77.45
72308;BME280;60257;42.638;23.376;2022-11-15T04:15:17;95082.25;;;2.50;78.12
72308;BME280;60257;42.638;23.376;2022-11-15T04:17:49;95088.06;;;2.38;78.59
72308;BME280;60257;42.638;23.376;2022-11-15T04:20:27;95081.94;;;2.27;79.20
72308;BME280;60257;42.638;23.376;2022-11-15T04:25:56;95076.44;;;2.38;79.67
72308;BME280;60257;42.638;23.376;2022-11-15T04:28:23;95069.47;;;2.31;80.14
72308;BME280;60257;42.638;23.376;2022-11-15T04:30:48;95062.84;;;2.14;80.94
72308;BME280;60257;42.638;23.376;2022-11-15T04:33:14;95080.59;;;2.25;81.24
72308;BME280;60257;42.638;23.376;2022-11-15T04:35:41;95086.25;;;2.28;81.71
72308;BME280;60257;42.638;23.376;2022-11-15T04:38:08;95081.38;;;2.30;82.50
72308;BME280;60257;42.638;23.376;2022-11-15T04:40:35;95072.81;;;2.18;83.37
72308;BME280;60257;42.638;23.376;2022-11-15T04:43:01;95086.31;;;2.23;84.36
72308;BME280;60257;42.638;23.376;2022-11-15T04:45:26;95071.72;;;2.19;84.32
72308;BME280;60257;42.638;23.376;2022-11-15T04:47:52;95079.84;;;2.19;84.55
72308;BME280;60257;42.638;23.376;2022-11-15T04:50:17;95080.25;;;2.03;85.33
72308;BME280;60257;42.638;23.376;2022-11-15T04:52:50;95084.97;;;1.92;85.40
72308;BME280;60257;42.638;23.376;2022-11-15T04:55:16;95084.63;;;1.60;87.04
72308;BME280;60257;42.638;23.376;2022-11-15T04:57:42;95073.16;;;1.39;88.65
72308;BME280;60257;42.638;23.376;2022-11-15T05:00:10;95091.50;;;1.47;88.07
72308;BME280;60257;42.638;23.376;2022-11-15T05:02:37;95087.75;;;1.38;88.55
72308;BME280;60257;42.638;23.376;2022-11-15T05:05:21;95079.88;;;1.41;88.61
72308;BME280;60257;42.638;23.376;2022-11-15T05:07:47;95092.81;;;1.49;88.34
72308;BME280;60257;42.638;23.376;2022-11-15T05:10:12;95084.75;;;1.44;89.14
72308;BME280;60257;42.638;23.376;2022-11-15T05:12:38;95092.78;;;1.54;89.27
72308;BME280;60257;42.638;23.376;2022-11-15T05:15:04;95081.34;;;1.68;89.38
72308;BME280;60257;42.638;23.376;2022-11-15T05:17:29;95081.16;;;1.93;88.85
72308;BME280;60257;42.638;23.376;2022-11-15T05:19:55;95079.09;;;2.14;87.49
72308;BME280;60257;42.638;23.376;2022-11-15T05:22:20;95074.56;;;2.33;86.82
72308;BME280;60257;42.638;23.376;2022-11-15T05:24:46;95079.06;;;2.48;85.71
72308;BME280;60257;42.638;23.376;2022-11-15T05:27:11;95080.91;;;2.23;86.80
72308;BME280;60257;42.638;23.376;2022-11-15T05:29:37;95086.88;;;2.20;87.55
72308;BME280;60257;42.638;23.376;2022-11-15T05:32:05;95076.97;;;2.40;86.63
72308;BME280;60257;42.638;23.376;2022-11-15T05:34:30;95083.81;;;2.56;86.28
72308;BME280;60257;42.638;23.376;2022-11-15T05:36:56;95059.22;;;2.52;85.51
72308;BME280;60257;42.638;23.376;2022-11-15T05:39:21;95093.28;;;2.82;85.31
72308;BME280;60257;42.638;23.376;2022-11-15T05:41:52;95088.34;;;2.89;85.45
72308;BME280;60257;42.638;23.376;2022-11-15T05:44:21;95083.38;;;2.96;85.20
72308;BME280;60257;42.638;23.376;2022-11-15T05:46:49;95083.63;;;3.00;84.95
72308;BME280;60257;42.638;23.376;2022-11-15T05:49:18;95080.63;;;3.01;85.19
72308;BME280;60257;42.638;23.376;2022-11-15T05:51:46;95087.81;;;3.11;84.68
72308;BME280;60257;42.638;23.376;2022-11-15T05:54:14;95085.72;;;3.03;83.98
72308;BME280;60257;42.638;23.376;2022-11-15T05:56:40;95082.47;;;3.06;83.80
72308;BME280;60257;42.638;23.376;2022-11-15T05:59:07;95082.75;;;3.04;83.76
72308;BME280;60257;42.638;23.376;2022-11-15T06:01:33;95082.97;;;3.08;83.44
72308;BME280;60257;42.638;23.376;2022-11-15T06:03:59;95084.75;;;3.18;83.40
72308;BME280;60257;42.638;23.376;2022-11-15T06:06:24;95082.19;;;3.26;83.19
72308;BME280;60257;42.638;23.376;2022-11-15T06:08:50;95072.53;;;3.20;84.57
72308;BME280;60257;42.638;23.376;2022-11-15T06:11:15;95088.81;;;3.39;84.17
72308;BME280;60257;42.638;23.376;2022-11-15T06:13:41;95091.28;;;3.17;84.67
72308;BME280;60257;42.638;23.376;2022-11-15T06:16:06;95084.78;;;2.94;85.78
72308;BME280;60257;42.638;23.376;2022-11-15T06:18:33;95088.97;;;3.05;85.52
72308;BME280;60257;42.638;23.376;2022-11-15T06:20:59;95095.47;;;3.28;85.38
72308;BME280;60257;42.638;23.376;2022-11-15T06:23:25;95095.78;;;3.45;84.96
72308;BME280;60257;42.638;23.376;2022-11-15T06:25:50;95071.03;;;3.33;84.44
72308;BME280;60257;42.638;23.376;2022-11-15T06:28:16;95101.44;;;3.06;85.79
72308;BME280;60257;42.638;23.376;2022-11-15T06:30:41;95082.75;;;2.81;86.51
72308;BME280;60257;42.638;23.376;2022-11-15T06:33:07;95084.97;;;2.79;86.58
72308;BME280;60257;42.638;23.376;2022-11-15T06:35:34;95093.41;;;2.72;87.80
72308;BME280;60257;42.638;23.376;2022-11-15T06:38:05;95081.72;;;2.77;87.89
72308;BME280;60257;42.638;23.376;2022-11-15T06:40:34;95059.59;;;2.93;87.54
72308;BME280;60257;42.638;23.376;2022-11-15T06:42:59;95087.84;;;3.30;86.58
72308;BME280;60257;42.638;23.376;2022-11-15T06:45:25;95094.41;;;3.47;85.26
72308;BME280;60257;42.638;23.376;2022-11-15T06:47:51;95086.72;;;3.55;85.53
72308;BME280;60257;42.638;23.376;2022-11-15T06:50:16;95084.97;;;3.64;84.60
72308;BME280;60257;42.638;23.376;2022-11-15T06:52:42;95091.63;;;3.71;84.20
72308;BME280;60257;42.638;23.376;2022-11-15T06:55:08;95077.69;;;3.78;83.55
72308;BME280;60257;42.638;23.376;2022-11-15T06:57:34;95084.22;;;3.77;82.65
72308;BME280;60257;42.638;23.376;2022-11-15T06:59:59;95088.19;;;3.84;82.30
72308;BME280;60257;42.638;23.376;2022-11-15T07:02:25;95078.19;;;3.99;82.21
72308;BME280;60257;42.638;23.376;2022-11-15T07:04:51;95078.69;;;4.01;81.99
72308;BME280;60257;42.638;23.376;2022-11-15T07:07:16;95072.03;;;3.93;82.09
72308;BME280;60257;42.638;23.376;2022-11-15T07:09:42;95070.75;;;4.04;82.18
72308;BME280;60257;42.638;23.376;2022-11-15T07:12:07;95068.69;;;4.15;81.82
72308;BME280;60257;42.638;23.376;2022-11-15T07:14:32;95061.19;;;4.25;81.32
72308;BME280;60257;42.638;23.376;2022-11-15T07:16:58;95064.06;;;4.48;80.50
72308;BME280;60257;42.638;23.376;2022-11-15T07:19:23;95069.81;;;4.60;79.86
72308;BME280;60257;42.638;23.376;2022-11-15T07:21:49;95065.28;;;4.55;80.09
72308;BME280;60257;42.638;23.376;2022-11-15T07:24:14;95051.47;;;4.38;79.85
72308;BME280;60257;42.638;23.376;2022-11-15T07:26:40;95057.09;;;4.42;80.06
72308;BME280;60257;42.638;23.376;2022-11-15T07:29:05;95054.03;;;4.62;79.47
72308;BME280;60257;42.638;23.376;2022-11-15T07:31:31;95064.38;;;4.74;79.32
72308;BME280;60257;42.638;23.376;2022-11-15T07:33:56;95053.03;;;4.85;78.69
72308;BME280;60257;42.638;23.376;2022-11-15T07:36:22;95057.38;;;5.00;78.32
72308;BME280;60257;42.638;23.376;2022-11-15T07:38:47;95064.28;;;5.20;77.21
72308;BME280;60257;42.638;23.376;2022-11-15T07:41:12;95053.31;;;5.11;77.08
72308;BME280;60257;42.638;23.376;2022-11-15T07:43:38;95065.44;;;5.19;76.44
72308;BME280;60257;42.638;23.376;2022-11-15T07:46:05;95066.94;;;5.25;76.57
72308;BME280;60257;42.638;23.376;2022-11-15T07:48:37;95065.41;;;5.32;76.54
72308;BME280;60257;42.638;23.376;2022-11-15T07:51:05;95054.34;;;4.88;77.57
72308;BME280;60257;42.638;23.376;2022-11-15T07:53:30;95065.53;;;4.86;77.97
72308;BME280;60257;42.638;23.376;2022-11-15T07:55:56;95062.81;;;4.86;78.13
72308;BME280;60257;42.638;23.376;2022-11-15T07:58:21;95052.53;;;4.83;78.38
72308;BME280;60257;42.638;23.376;2022-11-15T08:00:47;95061.28;;;4.80;78.79
72308;BME280;60257;42.638;23.376;2022-11-15T08:03:14;95065.72;;;4.76;78.74
72308;BME280;60257;42.638;23.376;2022-11-15T08:05:41;95058.34;;;4.63;79.08
72308;BME280;60257;42.638;23.376;2022-11-15T08:08:11;95071.72;;;4.59;79.43
72308;BME280;60257;42.638;23.376;2022-11-15T08:10:37;95065.38;;;4.50;80.17
72308;BME280;60257;42.638;23.376;2022-11-15T08:13:06;95066.41;;;4.68;79.86
72308;BME280;60257;42.638;23.376;2022-11-15T08:15:33;95053.84;;;4.26;80.50
72308;BME280;60257;42.638;23.376;2022-11-15T08:18:01;95058.75;;;4.56;80.10
72308;BME280;60257;42.638;23.376;2022-11-15T08:20:28;95068.53;;;4.71;79.22
72308;BME280;60257;42.638;23.376;2022-11-15T08:23:00;95063.63;;;4.87;78.63
72308;BME280;60257;42.638;23.376;2022-11-15T08:25:28;95057.97;;;4.70;79.31
72308;BME280;60257;42.638;23.376;2022-11-15T08:27:55;95059.91;;;4.04;81.53
72308;BME280;60257;42.638;23.376;2022-11-15T08:30:21;95031.06;;;3.95;81.76
72308;BME280;60257;42.638;23.376;2022-11-15T08:32:51;95057.53;;;4.49;80.48
72308;BME280;60257;42.638;23.376;2022-11-15T08:35:18;95055.13;;;4.75;79.53
72308;BME280;60257;42.638;23.376;2022-11-15T08:37:43;95051.63;;;4.88;79.26
72308;BME280;60257;42.638;23.376;2022-11-15T08:40:09;95055.25;;;4.83;79.07
72308;BME280;60257;42.638;23.376;2022-11-15T08:42:35;95055.84;;;4.80;79.29
72308;BME280;60257;42.638;23.376;2022-11-15T08:45:00;95047.00;;;5.02;78.54
72308;BME280;60257;42.638;23.376;2022-11-15T08:47:26;95048.91;;;5.15;78.23
72308;BME280;60257;42.638;23.376;2022-11-15T08:49:51;95040.66;;;4.93;80.09
72308;BME280;60257;42.638;23.376;2022-11-15T08:52:17;95051.44;;;4.71;79.94
72308;BME280;60257;42.638;23.376;2022-11-15T08:54:42;95037.03;;;4.84;79.65
72308;BME280;60257;42.638;23.376;2022-11-15T08:57:08;95027.16;;;4.60;80.87
72308;BME280;60257;42.638;23.376;2022-11-15T08:59:35;94999.00;;;4.84;79.69
72308;BME280;60257;42.638;23.376;2022-11-15T09:02:01;95025.69;;;4.95;78.88
72308;BME280;60257;42.638;23.376;2022-11-15T09:04:27;95017.81;;;4.67;79.71
72308;BME280;60257;42.638;23.376;2022-11-15T09:06:52;94998.25;;;4.37;80.37
72308;BME280;60257;42.638;23.376;2022-11-15T09:09:18;95018.66;;;4.35;81.67
72308;BME280;60257;42.638;23.376;2022-11-15T09:11:43;95008.66;;;4.76;80.34
72308;BME280;60257;42.638;23.376;2022-11-15T09:14:13;95009.13;;;5.19;79.48
72308;BME280;60257;42.638;23.376;2022-11-15T09:16:39;95001.47;;;5.21;78.30
72308;BME280;60257;42.638;23.376;2022-11-15T09:19:05;94992.31;;;5.17;78.04
72308;BME280;60257;42.638;23.376;2022-11-15T09:21:31;95004.34;;;5.38;77.80
72308;BME280;60257;42.638;23.376;2022-11-15T09:23:57;94984.34;;;5.21;78.01
72308;BME280;60257;42.638;23.376;2022-11-15T09:26:22;94994.31;;;5.61;77.58
72308;BME280;60257;42.638;23.376;2022-11-15T09:28:48;94987.84;;;5.71;76.85
72308;BME280;60257;42.638;23.376;2022-11-15T09:31:14;94993.78;;;5.37;77.55
72308;BME280;60257;42.638;23.376;2022-11-15T09:33:39;94992.88;;;5.28;77.99
72308;BME280;60257;42.638;23.376;2022-11-15T09:36:07;94978.88;;;5.34;77.44
72308;BME280;60257;42.638;23.376;2022-11-15T09:38:34;94982.25;;;5.18;77.72
72308;BME280;60257;42.638;23.376;2022-11-15T09:41:22;94971.38;;;5.18;78.33
72308;BME280;60257;42.638;23.376;2022-11-15T09:44:05;94970.81;;;5.65;76.70
72308;BME280;60257;42.638;23.376;2022-11-15T09:49:03;94972.84;;;5.60;76.60
72308;BME280;60257;42.638;23.376;2022-11-15T09:51:34;94951.91;;;5.82;75.71
72308;BME280;60257;42.638;23.376;2022-11-15T09:56:36;94959.38;;;6.22;74.80
72308;BME280;60257;42.638;23.376;2022-11-15T10:04:39;94949.88;;;6.10;75.00
72308;BME280;60257;42.638;23.376;2022-11-15T10:10:15;94942.47;;;6.33;75.13
72308;BME280;60257;42.638;23.376;2022-11-15T10:12:48;94926.97;;;6.42;73.85
72308;BME280;60257;42.638;23.376;2022-11-15T10:15:17;94927.81;;;6.60;73.83
72308;BME280;60257;42.638;23.376;2022-11-15T10:20:46;94925.03;;;6.91;72.93
72308;BME280;60257;42.638;23.376;2022-11-15T10:23:15;94916.22;;;6.94;72.72
72308;BME280;60257;42.638;23.376;2022-11-15T10:25:42;94926.34;;;7.02;72.76
72308;BME280;60257;42.638;23.376;2022-11-15T10:30:42;94924.19;;;6.73;72.26
72308;BME280;60257;42.638;23.376;2022-11-15T10:36:19;94896.13;;;6.73;73.08
72308;BME280;60257;42.638;23.376;2022-11-15T10:41:18;94878.72;;;7.08;72.80
72308;BME280;60257;42.638;23.376;2022-11-15T10:43:44;94869.56;;;7.13;72.40
72308;BME280;60257;42.638;23.376;2022-11-15T10:46:22;94874.56;;;7.19;71.99
72308;BME280;60257;42.638;23.376;2022-11-15T10:48:49;94867.16;;;7.03;72.22
72308;BME280;60257;42.638;23.376;2022-11-15T10:51:27;94866.97;;;6.73;73.30
72308;BME280;60257;42.638;23.376;2022-11-15T10:53:59;94874.34;;;6.73;73.59
72308;BME280;60257;42.638;23.376;2022-11-15T10:56:26;94872.88;;;6.75;73.60
72308;BME280;60257;42.638;23.376;2022-11-15T10:58:56;94868.38;;;6.71;73.57
72308;BME280;60257;42.638;23.376;2022-11-15T11:01:24;94855.59;;;6.80;73.60
72308;BME280;60257;42.638;23.376;2022-11-15T11:04:04;94838.13;;;6.81;73.25
72308;BME280;60257;42.638;23.376;2022-11-15T11:06:30;94836.31;;;6.76;73.38
72308;BME280;60257;42.638;23.376;2022-11-15T11:09:00;94843.69;;;6.76;73.31
72308;BME280;60257;42.638;23.376;2022-11-15T11:11:45;94833.44;;;6.81;73.56
72308;BME280;60257;42.638;23.376;2022-11-15T11:16:54;94821.75;;;6.89;73.39
72308;BME280;60257;42.638;23.376;2022-11-15T11:33:44;94794.97;;;7.00;73.35
72308;BME280;60257;42.638;23.376;2022-11-15T11:39:52;94786.13;;;7.29;72.80
72308;BME280;60257;42.638;23.376;2022-11-15T11:50:29;94768.44;;;7.44;72.41
72308;BME280;60257;42.638;23.376;2022-11-15T11:53:00;94764.41;;;7.58;71.79
72308;BME280;60257;42.638;23.376;2022-11-15T11:55:34;94756.69;;;7.60;71.74
72308;BME280;60257;42.638;23.376;2022-11-15T11:58:17;94760.69;;;7.63;71.61
72308;BME280;60257;42.638;23.376;2022-11-15T12:09:51;94740.75;;;7.71;71.35
72308;BME280;60257;42.638;23.376;2022-11-15T12:12:24;94732.72;;;7.74;71.40
72308;BME280;60257;42.638;23.376;2022-11-15T12:17:36;94714.56;;;7.79;71.45
72308;BME280;60257;42.638;23.376;2022-11-15T12:20:05;94720.22;;;7.73;71.09
72308;BME280;60257;42.638;23.376;2022-11-15T12:22:46;94725.19;;;7.71;71.22
72308;BME280;60257;42.638;23.376;2022-11-15T12:25:24;94720.84;;;7.70;71.43
72308;BME280;60257;42.638;23.376;2022-11-15T12:28:03;94710.53;;;7.76;71.13
72308;BME280;60257;42.638;23.376;2022-11-15T12:30:54;94714.41;;;7.75;71.27
72308;BME280;60257;42.638;23.376;2022-11-15T12:33:43;94709.28;;;7.73;71.44
72308;BME280;60257;42.638;23.376;2022-11-15T12:39:00;94702.34;;;7.76;71.29
72308;BME280;60257;42.638;23.376;2022-11-15T12:41:37;94690.97;;;7.74;71.27
72308;BME280;60257;42.638;23.376;2022-11-15T12:44:04;94697.38;;;7.78;71.17
72308;BME280;60257;42.638;23.376;2022-11-15T13:02:42;94677.06;;;7.96;70.57
72308;BME280;60257;42.638;23.376;2022-11-15T13:12:57;94671.47;;;7.84;71.03
72308;BME280;60257;42.638;23.376;2022-11-15T13:15:37;94659.31;;;7.82;71.19
72308;BME280;60257;42.638;23.376;2022-11-15T13:18:27;94654.03;;;7.77;71.21
72308;BME280;60257;42.638;23.376;2022-11-15T13:20:53;94653.50;;;7.83;71.12
72308;BME280;60257;42.638;23.376;2022-11-15T13:23:21;94667.63;;;7.85;71.49
72308;BME280;60257;42.638;23.376;2022-11-15T13:28:51;94653.88;;;8.02;71.06
72308;BME280;60257;42.638;23.376;2022-11-15T13:31:30;94645.47;;;8.07;70.73
72308;BME280;60257;42.638;23.376;2022-11-15T13:34:02;94634.28;;;8.00;70.82
72308;BME280;60257;42.638;23.376;2022-11-15T13:36:32;94636.22;;;8.00;70.81
72308;BME280;60257;42.638;23.376;2022-11-15T13:39:05;94623.63;;;7.87;70.96
72308;BME280;60257;42.638;23.376;2022-11-15T13:41:34;94613.03;;;7.85;70.94
72308;BME280;60257;42.638;23.376;2022-11-15T13:44:01;94649.34;;;8.06;70.79
72308;BME280;60257;42.638;23.376;2022-11-15T13:46:28;94650.94;;;8.07;70.81
72308;BME280;60257;42.638;23.376;2022-11-15T13:48:57;94644.84;;;8.10;70.48
72308;BME280;60257;42.638;23.376;2022-11-15T13:51:37;94641.94;;;8.07;70.66
72308;BME280;60257;42.638;23.376;2022-11-15T13:56:40;94638.78;;;8.05;70.93
72308;BME280;60257;42.638;23.376;2022-11-15T13:59:24;94637.75;;;8.09;70.81
72308;BME280;60257;42.638;23.376;2022-11-15T14:01:51;94642.22;;;8.14;70.67
72308;BME280;60257;42.638;23.376;2022-11-15T14:04:20;94636.44;;;8.16;70.47
72308;BME280;60257;42.638;23.376;2022-11-15T14:06:50;94634.19;;;8.18;70.51
72308;BME280;60257;42.638;23.376;2022-11-15T14:09:32;94632.25;;;8.18;70.41
72308;BME280;60257;42.638;23.376;2022-11-15T14:12:00;94630.31;;;8.19;70.33
72308;BME280;60257;42.638;23.376;2022-11-15T14:14:27;94624.91;;;8.10;70.54
72308;BME280;60257;42.638;23.376;2022-11-15T14:16:58;94624.22;;;8.13;70.56
72308;BME280;60257;42.638;23.376;2022-11-15T14:22:18;94625.56;;;8.07;70.71
72308;BME280;60257;42.638;23.376;2022-11-15T14:25:14;94590.38;;;7.85;71.00
72308;BME280;60257;42.638;23.376;2022-11-15T14:27:42;94616.19;;;7.96;71.02
72308;BME280;60257;42.638;23.376;2022-11-15T14:30:17;94624.09;;;7.89;71.38
72308;BME280;60257;42.638;23.376;2022-11-15T14:32:47;94633.75;;;7.86;71.35
72308;BME280;60257;42.638;23.376;2022-11-15T14:35:19;94625.66;;;7.69;71.89
72308;BME280;60257;42.638;23.376;2022-11-15T14:37:45;94621.19;;;7.64;72.08
72308;BME280;60257;42.638;23.376;2022-11-15T14:40:21;94623.91;;;7.64;71.92
72308;BME280;60257;42.638;23.376;2022-11-15T14:42:48;94634.97;;;7.68;71.89
72308;BME280;60257;42.638;23.376;2022-11-15T14:45:23;94625.84;;;7.64;71.91
72308;BME280;60257;42.638;23.376;2022-11-15T14:47:48;94625.16;;;7.67;72.01
72308;BME280;60257;42.638;23.376;2022-11-15T14:50:18;94629.69;;;7.63;72.50
72308;BME280;60257;42.638;23.376;2022-11-15T14:52:44;94616.56;;;7.56;72.52
72308;BME280;60257;42.638;23.376;2022-11-15T14:55:20;94635.16;;;7.63;72.57
72308;BME280;60257;42.638;23.376;2022-11-15T14:57:46;94629.91;;;7.58;72.61
72308;BME280;60257;42.638;23.376;2022-11-15T15:00:12;94632.66;;;7.49;72.97
72308;BME280;60257;42.638;23.376;2022-11-15T15:02:38;94633.63;;;7.45;73.18
72308;BME280;60257;42.638;23.376;2022-11-15T15:05:30;94635.41;;;7.41;73.13
72308;BME280;60257;42.638;23.376;2022-11-15T15:07:56;94634.81;;;7.35;73.29
72308;BME280;60257;42.638;23.376;2022-11-15T15:10:22;94633.03;;;7.30;73.69
72308;BME280;60257;42.638;23.376;2022-11-15T15:12:48;94624.06;;;7.30;73.52
72308;BME280;60257;42.638;23.376;2022-11-15T15:15:19;94629.84;;;7.28;73.98
72308;BME280;60257;42.638;23.376;2022-11-15T15:17:46;94632.91;;;7.27;73.75